createdAt,value
2023-06-11T01:39:18.018Z,999.90
2023-06-11T01:41:45.560Z,999.90
2023-06-11T01:44:13.196Z,999.90
2023-06-11T01:56:30.096Z,999.90
2023-06-11T02:01:24.635Z,999.90
2023-06-11T02:06:20.596Z,999.90
2023-06-11T02:11:15.285Z,999.90
2023-06-11T02:13:42.593Z,999.90
2023-06-11T02:16:10.040Z,999.90
2023-06-11T02:18:37.452Z,999.90
2023-06-11T02:21:06.174Z,999.90
2023-06-11T02:23:33.683Z,999.90
2023-06-11T02:26:01.010Z,999.90
2023-06-11T02:28:28.522Z,999.90
2023-06-11T02:30:55.885Z,999.90
2023-06-11T02:33:23.430Z,999.90
2023-06-11T02:35:50.874Z,999.90
2023-06-11T02:38:19.566Z,999.90
2023-06-11T02:40:46.905Z,999.90
2023-06-11T02:43:14.389Z,999.90
2023-06-11T02:45:41.806Z,999.90
2023-06-11T02:48:09.467Z,999.90
2023-06-11T02:50:36.844Z,999.90
2023-06-11T02:53:04.221Z,999.90
2023-06-11T02:55:32.937Z,999.90
2023-06-11T02:58:00.449Z,999.90
2023-06-11T03:00:27.755Z,999.90
2023-06-11T03:02:55.176Z,999.90
2023-06-11T03:05:22.501Z,999.90
2023-06-11T03:07:50.037Z,999.90
2023-06-11T03:10:17.658Z,999.90
2023-06-11T03:12:46.565Z,999.90
2023-06-11T03:15:14.317Z,999.90
2023-06-11T03:17:41.826Z,999.90
2023-06-11T03:20:10.168Z,999.90
2023-06-11T03:22:37.506Z,999.90
2023-06-11T03:25:05.835Z,999.90
2023-06-11T03:27:33.255Z,999.90
2023-06-11T03:30:02.002Z,999.90
2023-06-11T03:32:29.400Z,999.90
2023-06-11T03:34:56.749Z,999.90
2023-06-11T03:37:24.229Z,999.90
2023-06-11T03:39:51.591Z,999.90
2023-06-11T03:42:18.990Z,999.90
2023-06-11T03:44:46.356Z,999.90
2023-06-11T03:47:15.209Z,999.90
2023-06-11T03:49:42.684Z,999.90
2023-06-11T03:52:10.207Z,999.90
2023-06-11T03:54:37.499Z,999.90
2023-06-11T03:57:05.298Z,999.90
2023-06-11T03:59:32.628Z,999.90
2023-06-11T04:02:00.831Z,999.90
2023-06-11T04:04:29.613Z,999.90
2023-06-11T04:06:57.187Z,999.90
2023-06-11T04:09:24.602Z,999.90
2023-06-11T04:11:51.955Z,999.90
2023-06-11T04:14:19.322Z,999.90
2023-06-11T04:16:47.007Z,999.90
2023-06-11T04:19:14.468Z,999.90
2023-06-11T04:21:43.187Z,999.90
2023-06-11T04:24:10.545Z,999.90
2023-06-11T04:26:37.895Z,999.90
2023-06-11T04:29:05.423Z,999.90
2023-06-11T04:31:32.806Z,999.90
2023-06-11T04:34:00.167Z,999.90
2023-06-11T04:36:27.521Z,999.90
2023-06-11T04:38:56.544Z,999.90
2023-06-11T04:41:23.979Z,999.90
2023-06-11T04:43:52.604Z,999.90
2023-06-11T04:46:20.106Z,999.90
2023-06-11T04:48:47.418Z,999.90
2023-06-11T04:51:14.751Z,999.90
2023-06-11T04:53:42.093Z,999.90
2023-06-11T04:56:10.892Z,999.90
2023-06-11T04:58:38.250Z,999.90
2023-06-11T05:01:05.633Z,999.90
2023-06-11T05:03:32.973Z,999.90
2023-06-11T05:06:00.631Z,999.90
2023-06-11T05:08:28.256Z,999.90
2023-06-11T05:10:56.429Z,999.90
2023-06-11T05:13:25.631Z,999.90
2023-06-11T05:15:53.824Z,999.90
2023-06-11T05:18:21.324Z,999.90
2023-06-11T05:20:48.840Z,999.90
2023-06-11T05:23:16.493Z,999.90
2023-06-11T05:25:44.032Z,999.90
2023-06-11T05:28:11.370Z,999.90
2023-06-11T05:30:40.268Z,999.90
2023-06-11T05:33:07.721Z,999.90
2023-06-11T05:35:35.189Z,999.90
2023-06-11T05:38:02.539Z,999.90
2023-06-11T05:40:30.099Z,999.90
2023-06-11T05:42:57.452Z,999.90
2023-06-11T05:45:24.968Z,999.90
2023-06-11T05:47:53.801Z,999.90
2023-06-11T05:50:21.409Z,999.90
2023-06-11T05:52:49.713Z,999.90
2023-06-11T05:55:17.487Z,999.90
2023-06-11T05:57:45.028Z,999.90
2023-06-11T06:00:12.845Z,999.90
2023-06-11T06:02:40.261Z,999.90
2023-06-11T06:05:09.861Z,999.90
2023-06-11T06:07:37.578Z,999.90
2023-06-11T06:10:05.827Z,999.90
2023-06-11T06:12:33.459Z,999.90
2023-06-11T06:15:00.813Z,999.90
2023-06-11T06:17:28.326Z,999.90
2023-06-11T06:19:55.804Z,999.90
2023-06-11T06:22:24.699Z,999.90
2023-06-11T06:24:52.427Z,999.90
2023-06-11T06:27:19.781Z,999.90
2023-06-11T06:29:47.195Z,999.90
2023-06-11T06:32:14.652Z,999.90
2023-06-11T06:34:42.519Z,999.90
2023-06-11T06:37:09.988Z,999.90
2023-06-11T06:39:38.728Z,999.90
2023-06-11T06:42:07.128Z,999.90
2023-06-11T06:44:34.551Z,999.90
2023-06-11T06:47:02.001Z,999.90
2023-06-11T06:49:29.492Z,999.90
2023-06-11T06:51:56.823Z,999.90
2023-06-11T06:54:24.404Z,999.90
2023-06-11T06:56:53.137Z,999.90
2023-06-11T06:59:20.438Z,999.90
2023-06-11T07:01:47.815Z,999.90
2023-06-11T07:04:15.244Z,999.90
2023-06-11T07:06:42.563Z,999.90
2023-06-11T07:09:09.967Z,999.90
2023-06-11T07:11:37.486Z,999.90
2023-06-11T07:14:06.429Z,999.90
2023-06-11T07:16:33.947Z,999.90
2023-06-11T07:19:01.432Z,999.90
2023-06-11T07:21:28.909Z,999.90
2023-06-11T07:23:56.463Z,999.90
2023-06-11T07:26:23.816Z,999.90
2023-06-11T07:28:51.175Z,999.90
2023-06-11T07:31:20.076Z,999.90
2023-06-11T07:33:47.482Z,999.90
2023-06-11T07:36:14.821Z,999.90
2023-06-11T07:38:42.154Z,999.90
2023-06-11T07:41:09.556Z,999.90
2023-06-11T07:43:37.152Z,999.90
2023-06-11T07:46:04.580Z,999.90
2023-06-11T07:48:33.351Z,999.90
2023-06-11T07:51:00.914Z,999.90
2023-06-11T07:53:28.269Z,999.90
2023-06-11T07:55:55.757Z,999.90
2023-06-11T07:58:23.196Z,999.90
2023-06-11T08:00:50.714Z,999.90
2023-06-11T08:03:18.456Z,999.90
2023-06-11T08:05:47.228Z,999.90
2023-06-11T08:08:14.665Z,999.90
2023-06-11T08:10:42.004Z,999.90
2023-06-11T08:13:09.375Z,999.90
2023-06-11T08:15:36.904Z,999.90
2023-06-11T08:18:04.399Z,999.90
2023-06-11T08:20:31.752Z,999.90
2023-06-11T08:23:00.504Z,999.90
2023-06-11T08:25:27.813Z,999.90
2023-06-11T08:27:55.434Z,999.90
2023-06-11T08:30:22.936Z,999.90
2023-06-11T08:32:50.367Z,999.90
2023-06-11T08:35:17.756Z,999.90
2023-06-11T08:37:46.652Z,999.90
2023-06-11T08:40:15.872Z,999.90
2023-06-11T08:42:43.436Z,999.90
2023-06-11T08:45:11.047Z,999.90
2023-06-11T08:47:39.340Z,999.90
2023-06-11T08:50:08.657Z,999.90
2023-06-11T08:52:36.600Z,999.90
2023-06-11T08:55:04.301Z,999.90
2023-06-11T08:57:33.271Z,999.90
2023-06-11T09:00:00.596Z,999.90
2023-06-11T09:02:28.562Z,999.90
2023-06-11T09:04:58.534Z,999.90
2023-06-11T09:07:26.184Z,999.90
2023-06-11T09:10:03.899Z,999.90
2023-06-11T09:12:31.279Z,999.90
2023-06-11T09:15:00.048Z,999.90
2023-06-11T09:17:34.367Z,999.90
2023-06-11T09:20:04.622Z,999.90
2023-06-11T09:22:32.371Z,999.90
2023-06-11T09:25:03.939Z,999.90
2023-06-11T09:27:31.382Z,999.90
2023-06-11T09:30:09.502Z,999.90
2023-06-11T09:32:40.489Z,999.90
2023-06-11T09:35:09.409Z,999.90
2023-06-11T09:37:40.906Z,999.90
2023-06-11T09:40:11.519Z,999.90
2023-06-11T09:42:39.489Z,999.90
2023-06-11T09:45:12.620Z,999.90
2023-06-11T09:47:40.712Z,999.90
2023-06-11T09:50:09.975Z,999.90
2023-06-11T09:52:39.004Z,999.90
2023-06-11T09:55:07.696Z,999.90
2023-06-11T09:57:36.408Z,999.90
2023-06-11T10:00:04.510Z,999.90
2023-06-11T10:02:33.458Z,999.90
2023-06-11T10:05:01.149Z,999.90
2023-06-11T10:07:31.166Z,999.90
2023-06-11T10:09:59.663Z,999.90
2023-06-11T10:12:30.716Z,999.90
2023-06-11T10:14:58.042Z,999.90
2023-06-11T10:17:25.508Z,999.90
2023-06-11T10:19:54.548Z,999.90
2023-06-11T10:22:22.955Z,999.90
2023-06-11T10:25:00.448Z,999.90
2023-06-11T10:27:37.644Z,999.90
2023-06-11T10:30:07.274Z,999.90
2023-06-11T10:32:34.769Z,999.90
2023-06-11T10:35:04.670Z,999.90
2023-06-11T10:37:33.174Z,999.90
2023-06-11T10:40:00.767Z,999.90
2023-06-11T10:42:34.740Z,999.90
2023-06-11T10:45:07.093Z,999.90
2023-06-11T10:47:42.498Z,999.90
2023-06-11T10:50:13.491Z,999.90
2023-06-11T10:52:49.217Z,999.90
2023-06-11T10:55:17.088Z,999.90
2023-06-11T10:57:44.769Z,999.90
2023-06-11T11:00:13.206Z,999.90
2023-06-11T11:02:40.922Z,999.90
2023-06-11T11:05:10.070Z,999.90
2023-06-11T11:07:39.827Z,999.90
2023-06-11T11:10:08.486Z,999.90
2023-06-11T11:12:37.952Z,999.90
2023-06-11T11:15:06.561Z,999.90
2023-06-11T11:17:34.080Z,999.90
2023-06-11T11:20:01.581Z,999.90
2023-06-11T11:22:29.419Z,999.90
2023-06-11T11:25:01.765Z,999.90
2023-06-11T11:27:29.113Z,999.90
2023-06-11T11:29:57.100Z,999.90
2023-06-11T11:32:28.732Z,999.90
2023-06-11T11:34:57.765Z,999.90
2023-06-11T11:37:25.080Z,999.90
2023-06-11T11:39:53.546Z,999.90
2023-06-11T11:42:23.349Z,999.90
2023-06-11T11:44:54.515Z,999.90
2023-06-11T11:47:23.041Z,999.90
2023-06-11T11:49:54.612Z,999.90
2023-06-11T11:52:22.350Z,999.90
2023-06-11T11:54:50.074Z,999.90
2023-06-11T11:57:19.974Z,999.90
2023-06-11T11:59:52.240Z,999.90
2023-06-11T12:02:19.614Z,999.90
2023-06-11T12:04:49.143Z,999.90
2023-06-11T12:07:18.545Z,999.90
2023-06-11T12:09:46.060Z,999.90
2023-06-11T12:12:13.574Z,999.90
2023-06-11T12:14:41.012Z,999.90
2023-06-11T12:17:09.903Z,999.90
2023-06-11T12:19:37.454Z,999.90
2023-06-11T12:22:05.506Z,999.90
2023-06-11T12:24:33.294Z,999.90
2023-06-11T12:27:03.207Z,999.90
2023-06-11T12:29:32.905Z,999.90
2023-06-11T12:32:00.310Z,999.90
2023-06-11T12:34:29.168Z,999.90
2023-06-11T12:36:56.527Z,999.90
2023-06-11T12:39:23.836Z,999.90
2023-06-11T12:41:51.158Z,999.90
2023-06-11T12:44:18.508Z,999.90
2023-06-11T12:46:45.948Z,999.90
2023-06-11T12:49:13.488Z,999.90
2023-06-11T12:51:42.329Z,999.90
2023-06-11T12:54:09.631Z,999.90
2023-06-11T12:56:37.155Z,999.90
2023-06-11T12:59:04.561Z,999.90
2023-06-11T13:01:31.939Z,999.90
2023-06-11T13:03:59.262Z,999.90
2023-06-11T13:06:26.723Z,999.90
2023-06-11T13:08:55.483Z,999.90
2023-06-11T13:11:22.880Z,999.90
2023-06-11T13:13:50.437Z,999.90
2023-06-11T13:16:17.823Z,999.90
2023-06-11T13:18:45.185Z,999.90
2023-06-11T13:21:12.806Z,999.90
2023-06-11T13:23:40.365Z,999.90
2023-06-11T13:26:09.346Z,999.90
2023-06-11T13:28:36.876Z,999.90
2023-06-11T13:31:04.518Z,999.90
2023-06-11T13:33:33.624Z,999.90
2023-06-11T13:36:01.013Z,999.90
2023-06-11T13:38:28.420Z,999.90
2023-06-11T13:40:56.004Z,999.90
2023-06-11T13:43:24.836Z,999.90
2023-06-11T13:45:52.229Z,999.90
2023-06-11T13:48:20.695Z,999.90
2023-06-11T13:50:49.136Z,999.90
2023-06-11T13:53:16.683Z,999.90
2023-06-11T13:55:44.424Z,999.90
2023-06-11T13:58:12.449Z,999.90
2023-06-11T14:00:41.519Z,999.90
2023-06-11T14:03:09.754Z,999.90
2023-06-11T14:05:37.679Z,999.90
2023-06-11T14:08:05.595Z,999.90
2023-06-11T14:10:33.167Z,999.90
2023-06-11T14:13:00.633Z,999.90
2023-06-11T14:15:28.078Z,999.90
2023-06-11T14:17:57.605Z,999.90
2023-06-11T14:20:25.018Z,999.90
2023-06-11T14:22:52.406Z,999.90
2023-06-11T14:25:20.081Z,999.90
2023-06-11T14:27:47.622Z,999.90
2023-06-11T14:30:15.194Z,999.90
2023-06-11T14:32:42.837Z,999.90
2023-06-11T14:35:11.840Z,999.90
2023-06-11T14:37:39.377Z,999.90
2023-06-11T14:40:08.218Z,999.90
2023-06-11T14:42:35.545Z,999.90
2023-06-11T14:45:03.223Z,999.90
2023-06-11T14:47:30.604Z,999.90
2023-06-11T14:49:57.927Z,999.90
2023-06-11T14:52:26.635Z,999.90
2023-06-11T14:54:53.992Z,999.90
2023-06-11T14:57:23.763Z,999.90
2023-06-11T14:59:53.573Z,999.90
2023-06-11T15:02:21.091Z,999.90
2023-06-11T15:04:48.512Z,999.90
2023-06-11T15:07:33.287Z,999.90
2023-06-11T15:10:04.106Z,999.90
2023-06-11T15:12:31.591Z,999.90
2023-06-11T15:14:58.961Z,999.90
2023-06-11T15:17:26.363Z,999.90
2023-06-11T15:19:53.922Z,999.90
2023-06-11T15:22:21.329Z,999.90
2023-06-11T15:24:48.686Z,999.90
2023-06-11T15:27:17.449Z,999.90
2023-06-11T15:29:45.197Z,999.90
2023-06-11T15:32:14.311Z,999.90
2023-06-11T15:34:41.667Z,999.90
2023-06-11T15:37:09.163Z,999.90
2023-06-11T15:39:36.519Z,999.90
2023-06-11T15:42:04.497Z,999.90
2023-06-11T15:44:33.288Z,999.90
2023-06-11T15:47:00.696Z,999.90
2023-06-11T15:49:28.086Z,999.90
2023-06-11T15:51:55.415Z,999.90
2023-06-11T15:54:22.824Z,999.90
2023-06-11T15:56:50.232Z,999.90
2023-06-11T15:59:17.634Z,999.90
2023-06-11T16:01:46.395Z,999.90
2023-06-11T16:04:14.037Z,999.90
2023-06-11T16:06:41.584Z,999.90
2023-06-11T16:09:08.977Z,999.90
2023-06-11T16:11:36.310Z,999.90
2023-06-11T16:14:04.046Z,999.90
2023-06-11T16:16:31.539Z,999.90
2023-06-11T16:19:00.414Z,999.90
2023-06-11T16:21:27.984Z,999.90
2023-06-11T16:23:55.309Z,999.90
2023-06-11T16:26:22.750Z,999.90
2023-06-11T16:28:50.367Z,999.90
2023-06-11T16:31:17.900Z,999.90
2023-06-11T16:33:57.461Z,999.90
2023-06-11T16:36:28.168Z,999.90
2023-06-11T16:38:55.694Z,999.90
2023-06-11T16:41:23.155Z,999.90
2023-06-11T16:43:50.997Z,999.90
2023-06-11T16:46:19.073Z,999.90
2023-06-11T16:48:46.856Z,999.90
2023-06-11T16:51:14.747Z,999.90
2023-06-11T16:53:43.418Z,999.90
2023-06-11T16:56:10.785Z,999.90
2023-06-11T16:58:38.284Z,999.90
2023-06-11T17:01:05.695Z,999.90
2023-06-11T17:03:34.083Z,999.90
2023-06-11T17:06:01.838Z,999.90
2023-06-11T17:08:29.262Z,999.90
2023-06-11T17:10:58.081Z,999.90
2023-06-11T17:13:25.441Z,999.90
2023-06-11T17:15:52.798Z,999.90
2023-06-11T17:18:20.266Z,999.90
2023-06-11T17:20:47.716Z,999.90
2023-06-11T17:23:15.097Z,999.90
2023-06-11T17:25:42.514Z,999.90
2023-06-11T17:28:11.408Z,999.90
2023-06-11T17:30:38.857Z,999.90
2023-06-11T17:33:06.235Z,999.90
2023-06-11T17:35:33.837Z,999.90
2023-06-11T17:38:01.198Z,999.90
2023-06-11T17:40:28.738Z,999.90
2023-06-11T17:42:56.793Z,999.90
2023-06-11T17:45:25.985Z,999.90
2023-06-11T17:47:53.493Z,999.90
2023-06-11T17:50:20.999Z,999.90
2023-06-11T17:52:48.386Z,999.90
2023-06-11T17:55:15.831Z,999.90
2023-06-11T17:57:44.507Z,999.90
2023-06-11T18:00:13.394Z,999.90
2023-06-11T18:02:42.333Z,999.90
2023-06-11T18:05:10.873Z,999.90
2023-06-11T18:07:38.538Z,999.90
2023-06-11T18:10:07.071Z,999.90
2023-06-11T18:12:34.564Z,999.90
2023-06-11T18:15:10.872Z,999.90
2023-06-11T18:17:50.764Z,999.90
2023-06-11T18:20:18.206Z,999.90
2023-06-11T18:22:45.558Z,999.90
2023-06-11T18:25:13.053Z,999.90
2023-06-11T18:27:40.706Z,999.90
2023-06-11T18:30:09.149Z,999.90
2023-06-11T18:32:36.715Z,999.90
2023-06-11T18:35:06.460Z,999.90
2023-06-11T18:37:33.965Z,999.90
2023-06-11T18:40:01.783Z,999.90
2023-06-11T18:42:29.177Z,999.90
2023-06-11T18:44:56.512Z,999.90
2023-06-11T18:47:24.006Z,999.90
2023-06-11T18:49:51.401Z,999.90
2023-06-11T18:52:20.183Z,999.90
2023-06-11T18:54:47.531Z,999.90
2023-06-11T18:57:15.105Z,999.90
2023-06-11T18:59:42.524Z,999.90
2023-06-11T19:02:09.979Z,999.90
2023-06-11T19:04:37.338Z,999.90
2023-06-11T19:07:05.099Z,999.90
2023-06-11T19:09:34.049Z,999.90
2023-06-11T19:12:01.678Z,999.90
2023-06-11T19:14:29.037Z,999.90
2023-06-11T19:16:56.409Z,999.90
2023-06-11T19:19:23.896Z,999.90
2023-06-11T19:21:51.357Z,999.90
2023-06-11T19:24:18.850Z,999.90
2023-06-11T19:26:47.869Z,999.90
2023-06-11T19:29:15.423Z,999.90
2023-06-11T19:31:42.877Z,999.90
2023-06-11T19:34:10.341Z,999.90
2023-06-11T19:36:37.727Z,999.90
2023-06-11T19:39:05.338Z,999.90
2023-06-11T19:41:32.978Z,999.90
2023-06-11T19:44:01.725Z,999.90
2023-06-11T19:46:31.586Z,999.90
2023-06-11T19:49:00.628Z,999.90
2023-06-11T19:51:27.937Z,999.90
2023-06-11T19:53:55.460Z,999.90
2023-06-11T19:56:22.849Z,999.90
2023-06-11T19:58:50.305Z,999.90
2023-06-11T20:01:19.316Z,999.90
2023-06-11T20:03:46.947Z,999.90
2023-06-11T20:06:14.484Z,999.90
2023-06-11T20:08:41.856Z,999.90
2023-06-11T20:11:09.358Z,999.90
2023-06-11T20:13:36.838Z,999.90
2023-06-11T20:16:04.681Z,999.90
2023-06-11T20:18:34.363Z,999.90
2023-06-11T20:21:01.894Z,999.90
2023-06-11T20:23:30.528Z,999.90
2023-06-11T20:25:57.892Z,999.90
2023-06-11T20:28:25.517Z,999.90
2023-06-11T20:30:52.971Z,999.90
2023-06-11T20:33:20.440Z,999.90
2023-06-11T20:35:49.570Z,999.90
2023-06-11T20:38:16.898Z,999.90
2023-06-11T20:40:44.229Z,999.90
2023-06-11T20:43:11.784Z,999.90
2023-06-11T20:45:39.317Z,999.90
2023-06-11T20:48:07.384Z,999.90
2023-06-11T20:50:34.935Z,999.90
2023-06-11T20:53:16.633Z,999.90
2023-06-11T20:55:54.831Z,999.90
2023-06-11T20:58:22.177Z,999.90
2023-06-11T21:00:49.685Z,999.90
2023-06-11T21:03:17.047Z,999.90
2023-06-11T21:05:44.637Z,999.90
2023-06-11T21:08:13.373Z,999.90
2023-06-11T21:10:40.773Z,999.90
2023-06-11T21:13:08.148Z,999.90
2023-06-11T21:15:35.741Z,999.90
2023-06-11T21:18:03.133Z,999.90
2023-06-11T21:20:30.751Z,999.90
2023-06-11T21:22:58.306Z,999.90
2023-06-11T21:25:27.138Z,999.90
2023-06-11T21:27:54.530Z,999.90
2023-06-11T21:30:21.993Z,999.90
2023-06-11T21:32:49.416Z,999.90
2023-06-11T21:35:17.080Z,999.90
2023-06-11T21:37:44.436Z,999.90
2023-06-11T21:40:12.918Z,999.90
2023-06-11T21:42:42.041Z,999.90
2023-06-11T21:45:10.302Z,999.90
2023-06-11T21:47:37.786Z,999.90
2023-06-11T21:50:06.199Z,999.90
2023-06-11T21:52:33.645Z,999.90
2023-06-11T21:55:01.121Z,999.90
2023-06-11T21:57:29.601Z,999.90
2023-06-11T21:59:58.322Z,999.90
2023-06-11T22:02:25.773Z,999.90
2023-06-11T22:04:53.135Z,999.90
2023-06-11T22:07:20.613Z,999.90
2023-06-11T22:09:47.989Z,999.90
2023-06-11T22:12:15.669Z,999.90
2023-06-11T22:14:43.198Z,999.90
2023-06-11T22:17:12.016Z,999.90
2023-06-11T22:19:39.381Z,999.90
2023-06-11T22:22:06.912Z,999.90
2023-06-11T22:24:34.604Z,999.90
2023-06-11T22:27:02.094Z,999.90
2023-06-11T22:29:29.557Z,999.90
2023-06-11T22:31:56.989Z,999.90
2023-06-11T22:34:25.781Z,999.90
2023-06-11T22:36:53.158Z,999.90
2023-06-11T22:39:20.628Z,999.90
2023-06-11T22:41:47.938Z,999.90
2023-06-11T22:44:15.531Z,999.90
2023-06-11T22:46:43.011Z,999.90
2023-06-11T22:49:10.598Z,999.90
2023-06-11T22:51:39.422Z,999.90
2023-06-11T22:54:06.991Z,999.90
2023-06-11T22:56:34.343Z,2.40
2023-06-11T22:59:01.784Z,2.20
2023-06-11T23:01:29.096Z,1.80
2023-06-11T23:03:56.659Z,2.00
2023-06-11T23:06:24.049Z,2.03
2023-06-11T23:08:52.818Z,1.75
2023-06-11T23:11:20.204Z,2.05
2023-06-11T23:13:47.524Z,2.10
2023-06-11T23:16:15.220Z,2.15
2023-06-11T23:18:42.812Z,2.10
2023-06-11T23:21:10.596Z,2.20
2023-06-11T23:23:38.040Z,2.17
2023-06-11T23:26:06.848Z,2.20
2023-06-11T23:28:34.187Z,2.10
2023-06-11T23:31:01.521Z,2.20
2023-06-11T23:33:28.882Z,2.00
2023-06-11T23:35:56.224Z,2.00
2023-06-11T23:38:23.577Z,10.20
2023-06-11T23:40:50.921Z,2.13
2023-06-11T23:43:19.693Z,2.20
2023-06-11T23:45:47.048Z,2.10
2023-06-11T23:48:14.662Z,2.38
2023-06-11T23:50:42.062Z,2.25
2023-06-11T23:53:10.144Z,2.40
2023-06-11T23:55:37.516Z,2.17
2023-06-11T23:58:19.741Z,2.35
